Sacramento International Airport
KSMF : now visible

Airfield :











YOU CAN JOIN US ON...

 
LOGIN :

Register | Disclaimer

   EN    FR    IT 

 









Legend :    VFR   Marginal VFR   IFR   Intensive IFR   Very Intensive IFR
Visi :
Ceiling :
>= 8 km
>= 3000ft
5 to 8 km
1000 to 3000 ft
1500m to 5 km
500 to 1000 ft
800 to 1500m
200 to 500 ft
< 800m
< 200 ft
Symbols :   Thunderstorms  Fog  Heavy snow  Heavy precipitations  Wind > 20 kt






- Airport Elevation : 27 ft
- IATA code : SMF


KSMF - Sacramento International

CURRENT METAR :
  • 152353Z 34008KT 6SM HZ BKN250 17/11 A3027 RMK AO2 SLP249 T01670106 10167 20072 56018

EXPIRED METARs :
  • 152253Z 36006KT 7SM BKN250 16/11 A3028 RMK AO2 SLP253 T01610106
  • 152153Z VRB03KT 6SM HZ BKN250 16/11 A3029 RMK AO2 SLP256 T01610106

TAF KSMF
Valid from the 16 at 00:00 until the 17 at 00:00 UTC


152320Z 1600/1624 36006KT P6SM BKN250
FM161400 VRB03KT 3SM BR OVC004
TEMPO 1614/1618 1/4SM FG OVC002
FM161800 34005KT 4SM HZ OVC250
KZOA FIR / North America



MET'MAP, your aeronautical weather chart ! - Copyright ORBIFLY December 2007 - Disclaimer

ORBIFLY MET'MAP TEAM :

Programming & Development : Alexandra Zaïnal
Concept & original design : Baudouin d'Aumeries
Assistance for programming : Marc-Olivier Méhu
Technical & hardware support : Manuel Goepfert

Contact : metmap@orbifly.com




SOURCES & CREDITS :

   NOAA       Earth
Advisory